Time;durP1;ratioP1;P1;durP2;ratioP2;P2;SDS_P1;SDS_P2;PMS_P1;PMS_P2;Temp;Humidity;BMP_temperature;BMP_pressure;BME280_temperature;BME280_humidity;BME280_pressure;Samples;Min_cycle;Max_cycle;Signal;HPM_P1;HPM_P2
2023/06/02 00:02:43;;;;;;;0.80;0.77;;;;;;;18.86;57.96;96490.56;10493051;28;20041;-32
2023/06/02 00:07:44;;;;;;;0.90;0.73;;;;;;;18.80;57.73;96488.03;10493878;28;20059;-32
2023/06/02 00:12:44;;;;;;;1.00;0.90;;;;;;;18.84;57.71;96494.78;10509229;28;20532;-33
2023/06/02 00:17:44;;;;;;;1.00;0.65;;;;;;;18.85;57.63;96488.88;10487036;28;20295;-32
2023/06/02 00:22:46;;;;;;;1.00;0.80;;;;;;;19.02;58.47;96487.09;10492911;28;20044;-32
2023/06/02 00:27:47;;;;;;;0.80;0.80;;;;;;;19.18;58.76;96488.69;10490771;28;20037;-32
2023/06/02 00:32:47;;;;;;;1.00;0.90;;;;;;;19.10;58.46;96485.34;10473026;28;20106;-33
2023/06/02 00:37:47;;;;;;;0.60;0.60;;;;;;;18.97;58.41;96476.97;10472890;28;20449;-33
2023/06/02 00:42:48;;;;;;;0.80;0.67;;;;;;;18.93;58.21;96477.00;10489330;28;20310;-32
2023/06/02 00:47:48;;;;;;;0.80;0.80;;;;;;;18.88;57.91;96468.56;10473747;28;20044;-32
2023/06/02 00:52:54;;;;;;;1.00;0.90;;;;;;;18.87;57.82;96471.94;10472598;28;20033;-32
2023/06/02 00:57:56;;;;;;;0.65;0.65;;;;;;;18.86;57.80;96472.78;10490839;28;20048;-33
2023/06/02 01:02:57;;;;;;;0.77;0.63;;;;;;;18.84;57.81;96462.66;10488391;28;20040;-33
2023/06/02 01:08:04;;;;;;;0.95;0.82;;;;;;;18.85;57.62;96469.41;10489489;28;20515;-32
2023/06/02 01:13:04;;;;;;;0.77;0.77;;;;;;;18.85;57.61;96460.97;10491313;28;20040;-33
2023/06/02 01:18:10;;;;;;;0.75;0.65;;;;;;;18.87;58.68;96466.88;10480240;28;20037;-32
2023/06/02 01:23:17;;;;;;;0.50;0.50;;;;;;;19.08;58.38;96464.22;10498336;28;20039;-34
2023/06/02 01:28:17;;;;;;;0.68;0.68;;;;;;;19.18;57.60;96468.38;10485071;28;20108;-32
2023/06/02 01:33:28;;;;;;;0.60;0.60;;;;;;;19.02;58.36;96469.31;10468492;28;20059;-32
2023/06/02 01:38:30;;;;;;;0.75;0.75;;;;;;;18.94;58.23;96463.44;10490118;28;20039;-33
2023/06/02 01:43:32;;;;;;;1.42;0.70;;;;;;;18.91;57.84;96463.47;10494107;28;20518;-33
2023/06/02 01:48:32;;;;;;;0.88;0.80;;;;;;;18.88;57.93;96461.78;10475378;28;20032;-33
2023/06/02 01:53:35;;;;;;;0.80;0.80;;;;;;;18.87;57.71;96462.66;10471785;28;20032;-32
2023/06/02 01:58:36;;;;;;;0.80;0.77;;;;;;;18.87;58.26;96477.88;10470025;28;20517;-32
2023/06/02 02:03:37;;;;;;;0.80;0.80;;;;;;;18.86;57.69;96466.03;10471767;28;20170;-32
2023/06/02 02:08:37;;;;;;;0.70;0.70;;;;;;;18.85;57.55;96466.03;10488752;28;20036;-32
2023/06/02 02:13:37;;;;;;;0.90;0.80;;;;;;;18.86;57.54;96467.72;10496999;28;20044;-32
2023/06/02 02:18:38;;;;;;;0.70;0.70;;;;;;;18.94;59.47;96464.31;10484336;28;20036;-32
2023/06/02 02:23:39;;;;;;;0.87;0.80;;;;;;;19.13;58.60;96468.41;10476867;28;20660;-31
2023/06/02 02:28:39;;;;;;;0.70;0.63;;;;;;;19.15;57.84;96476.00;10478648;28;20474;-32
2023/06/02 02:33:40;;;;;;;0.88;0.80;;;;;;;19.01;58.05;96475.25;10478692;28;20032;-32
2023/06/02 02:38:42;;;;;;;0.63;0.60;;;;;;;18.95;58.11;96482.88;10477962;28;20033;-33
2023/06/02 02:43:42;;;;;;;0.88;0.75;;;;;;;18.91;57.97;96482.06;10475032;28;20075;-33
2023/06/02 02:48:43;;;;;;;1.00;0.90;;;;;;;18.81;57.66;96480.44;10474670;28;20059;-32
2023/06/02 02:53:43;;;;;;;0.70;0.70;;;;;;;18.69;57.53;96474.56;10475786;28;20105;-34
2023/06/02 02:58:44;;;;;;;0.63;0.63;;;;;;;18.65;57.63;96481.34;10490887;28;20029;-33
2023/06/02 03:03:44;;;;;;;1.10;1.00;;;;;;;18.62;57.46;96488.97;10493683;28;20871;-33
2023/06/02 03:08:46;;;;;;;0.80;0.80;;;;;;;18.56;57.38;96486.47;10471001;28;20502;-33
2023/06/02 03:13:47;;;;;;;1.25;0.93;;;;;;;18.55;57.19;96483.94;10475269;28;20637;-32
2023/06/02 03:18:47;;;;;;;1.10;1.00;;;;;;;18.78;57.25;96492.28;10475506;28;20035;-32
2023/06/02 03:23:49;;;;;;;1.73;0.75;;;;;;;18.99;56.61;96480.31;10476011;28;20028;-32
2023/06/02 03:28:50;;;;;;;1.30;1.20;;;;;;;18.94;56.69;96486.28;10474458;28;20098;-33
2023/06/02 03:33:50;;;;;;;1.10;1.00;;;;;;;18.76;56.88;96484.66;10484553;28;20101;-33
2023/06/02 03:38:51;;;;;;;1.27;0.93;;;;;;;18.68;56.55;96488.09;10482587;28;20032;-33
2023/06/02 03:43:53;;;;;;;1.42;0.95;;;;;;;18.61;56.64;96483.91;10476867;28;20491;-32
2023/06/02 03:48:53;;;;;;;1.10;1.00;;;;;;;18.58;57.00;96494.06;10493469;28;20027;-33
2023/06/02 03:53:54;;;;;;;1.33;1.23;;;;;;;18.56;56.87;96490.69;10473142;28;20287;-32
2023/06/02 03:58:56;;;;;;;1.38;1.27;;;;;;;18.54;56.90;96505.06;10475288;28;20032;-31
2023/06/02 04:03:58;;;;;;;1.92;1.73;;;;;;;18.54;57.13;96502.53;10473402;28;20024;-32
2023/06/02 04:08:58;;;;;;;1.88;1.30;;;;;;;18.53;56.75;96503.38;10473813;28;20024;-32
2023/06/02 04:13:59;;;;;;;1.42;1.33;;;;;;;18.52;56.64;96504.22;10474410;28;20027;-32
2023/06/02 04:19:01;;;;;;;2.22;1.45;;;;;;;18.72;56.55;96503.31;10470353;28;20032;-31
2023/06/02 04:24:02;;;;;;;1.80;1.50;;;;;;;18.98;56.27;96505.69;10472935;28;20024;-32
2023/06/02 04:29:03;;;;;;;1.48;1.35;;;;;;;18.81;56.30;96507.47;10507111;28;20025;-31
2023/06/02 04:34:04;;;;;;;2.92;1.50;;;;;;;18.69;56.63;96520.22;10475936;28;20050;-32
2023/06/02 04:39:07;;;;;;;1.92;1.70;;;;;;;18.63;56.41;96532.91;10465572;28;20032;-32
2023/06/02 04:44:09;;;;;;;2.03;1.80;;;;;;;18.58;56.24;96534.66;10466652;28;20119;-32
2023/06/02 04:49:10;;;;;;;1.95;1.75;;;;;;;18.54;56.37;96538.88;10473980;28;20033;-32
2023/06/02 04:54:11;;;;;;;2.50;2.30;;;;;;;18.52;56.56;96542.25;10472016;28;20024;-32
2023/06/02 04:59:13;;;;;;;2.63;2.25;;;;;;;18.51;56.60;96543.09;10481069;28;20036;-32
2023/06/02 05:04:15;;;;;;;2.45;2.10;;;;;;;18.50;56.59;96542.25;10472044;28;20028;-33
2023/06/02 05:09:15;;;;;;;2.67;2.35;;;;;;;18.51;56.52;96550.72;10472187;28;20040;-32
2023/06/02 05:14:16;;;;;;;2.13;1.92;;;;;;;18.50;56.62;96552.38;10465940;28;20036;-32
2023/06/02 05:19:19;;;;;;;3.45;2.50;;;;;;;18.77;56.25;96549.75;10489156;28;20028;-32
2023/06/02 05:24:22;;;;;;;2.88;2.35;;;;;;;18.97;55.33;96560.69;10491513;28;20029;-33
2023/06/02 05:29:24;;;;;;;2.30;2.10;;;;;;;18.79;56.08;96552.28;10471857;28;20041;-32
2023/06/02 05:34:25;;;;;;;4.25;3.28;;;;;;;18.67;56.06;96548.09;10473098;28;20037;-32
2023/06/02 05:39:28;;;;;;;2.75;2.40;;;;;;;18.61;56.06;96542.22;10486386;28;20032;-32
2023/06/02 05:44:29;;;;;;;3.63;2.90;;;;;;;18.58;56.15;96542.25;10489856;28;20028;-32
2023/06/02 05:49:29;;;;;;;3.80;2.67;;;;;;;18.54;56.39;96538.00;10498686;28;20032;-31
2023/06/02 05:54:31;;;;;;;3.42;2.53;;;;;;;18.54;56.27;96530.41;10473899;28;20028;-32
2023/06/02 05:59:32;;;;;;;3.30;2.92;;;;;;;18.52;56.50;96524.50;10506325;28;20031;-32
2023/06/02 06:04:32;;;;;;;4.13;3.10;;;;;;;18.51;56.51;96535.50;10479019;28;20047;-32
2023/06/02 06:09:33;;;;;;;4.50;3.08;;;;;;;18.50;56.31;96531.28;10497072;28;20149;-32
2023/06/02 06:14:36;;;;;;;3.42;2.92;;;;;;;18.55;56.41;96534.63;10476651;28;20498;-32
2023/06/02 06:19:36;;;;;;;2.70;2.50;;;;;;;18.83;55.83;96536.22;10477745;28;20032;-32
2023/06/02 06:24:37;;;;;;;3.73;2.80;;;;;;;18.96;55.37;96550.53;10497186;28;20031;-33
2023/06/02 06:29:38;;;;;;;4.03;2.92;;;;;;;18.77;56.13;96541.31;10476462;28;20395;-31
2023/06/02 06:34:38;;;;;;;3.35;3.03;;;;;;;18.67;56.10;96554.91;10478539;28;20028;-32
2023/06/02 06:39:39;;;;;;;4.35;3.13;;;;;;;18.55;55.95;96548.16;10476871;28;20119;-32
2023/06/02 06:44:39;;;;;;;3.90;3.20;;;;;;;18.55;56.31;96565.91;10475131;28;20036;-32
2023/06/02 06:49:40;;;;;;;3.53;2.90;;;;;;;18.53;56.13;96571.81;10477896;28;20366;-32
2023/06/02 06:54:40;;;;;;;3.87;3.43;;;;;;;18.55;56.20;96576.06;10494802;28;20020;-32
2023/06/02 06:59:44;;;;;;;3.33;2.93;;;;;;;18.50;56.25;96572.66;10494289;28;20036;-32
2023/06/02 07:04:44;;;;;;;3.72;3.20;;;;;;;18.50;56.58;96560.00;10493563;28;20290;-32
2023/06/02 07:09:46;;;;;;;4.73;3.30;;;;;;;18.48;56.31;96555.78;10492766;28;20025;-33
2023/06/02 07:14:46;;;;;;;4.63;3.42;;;;;;;18.56;56.28;96567.59;10477375;28;20509;-32
2023/06/02 07:19:47;;;;;;;3.90;3.40;;;;;;;18.85;55.81;96564.97;10493892;28;20040;-32
2023/06/02 07:24:47;;;;;;;4.57;3.90;;;;;;;18.95;55.14;96561.53;10494795;28;20063;-31
2023/06/02 07:29:47;;;;;;;3.90;3.30;;;;;;;18.76;55.95;96557.41;10493073;28;20085;-33
2023/06/02 07:34:48;;;;;;;4.33;3.57;;;;;;;18.62;55.96;96539.69;10494276;28;20341;-32
2023/06/02 07:39:48;;;;;;;4.30;3.73;;;;;;;18.64;55.90;96549.81;10488514;28;20045;-32
2023/06/02 07:44:48;;;;;;;4.65;3.58;;;;;;;18.62;55.94;96556.59;10492399;28;20039;-32
2023/06/02 07:49:49;;;;;;;3.93;3.57;;;;;;;18.59;55.99;96561.69;10502186;28;20035;-32
2023/06/02 07:54:49;;;;;;;5.40;3.93;;;;;;;18.54;56.09;96558.31;10492100;28;20028;-33
2023/06/02 07:59:52;;;;;;;4.00;3.27;;;;;;;18.53;56.12;96574.38;10493028;28;20033;-32
2023/06/02 08:04:52;;;;;;;4.45;3.53;;;;;;;18.53;56.01;96575.22;10485921;28;20278;-32
2023/06/02 08:09:52;;;;;;;3.33;3.03;;;;;;;18.51;56.16;96571.00;10492302;28;20024;-32
2023/06/02 08:14:55;;;;;;;4.90;3.63;;;;;;;18.71;56.62;96576.84;10487316;28;20028;-32
2023/06/02 08:19:57;;;;;;;3.92;3.33;;;;;;;18.94;56.39;96568.31;10492396;28;20479;-32
2023/06/02 08:24:57;;;;;;;3.72;3.35;;;;;;;19.00;56.07;96570.81;10490808;28;20024;-32
2023/06/02 08:29:58;;;;;;;3.42;2.92;;;;;;;18.90;56.33;96574.25;10492016;28;20051;-32
2023/06/02 08:35:01;;;;;;;3.80;3.07;;;;;;;18.85;56.36;96565.78;10489373;28;20036;-32
2023/06/02 08:40:01;;;;;;;3.58;3.17;;;;;;;18.82;56.34;96563.28;10488371;28;20037;-32
2023/06/02 08:45:04;;;;;;;3.10;2.72;;;;;;;18.82;56.42;96570.06;10491516;28;20037;-32
2023/06/02 08:50:06;;;;;;;2.80;2.55;;;;;;;18.80;56.19;96559.91;10495560;28;20026;-32
2023/06/02 08:55:07;;;;;;;3.70;2.28;;;;;;;18.82;56.47;96554.84;10500313;28;20119;-33
2023/06/02 09:00:10;;;;;;;2.80;2.50;;;;;;;18.81;56.54;96559.06;10482737;28;20128;-32
2023/06/02 09:05:13;;;;;;;2.90;2.38;;;;;;;18.81;56.33;96563.28;10472423;28;20024;-32
2023/06/02 09:10:30;;;;;;;2.40;2.20;;;;;;;18.81;56.49;96555.66;10490687;28;20024;-34
2023/06/02 09:15:32;;;;;;;4.00;3.03;;;;;;;18.96;57.11;96569.16;10490672;28;20036;-32
2023/06/02 09:20:32;;;;;;;3.13;2.83;;;;;;;19.13;57.07;96567.38;10490989;28;20063;-32
2023/06/02 09:25:33;;;;;;;3.83;2.92;;;;;;;19.07;56.82;96559.78;10492956;28;20037;-32
2023/06/02 09:30:34;;;;;;;3.08;2.40;;;;;;;18.95;57.01;96557.31;10498527;28;20032;-32
2023/06/02 09:35:44;;;;;;;3.13;2.80;;;;;;;18.91;57.07;96560.69;10498794;28;20040;-32
2023/06/02 09:40:44;;;;;;;3.03;2.63;;;;;;;18.88;56.91;96557.34;10491605;28;20333;-32
2023/06/02 09:45:48;;;;;;;2.90;2.50;;;;;;;18.87;56.83;96555.66;10497042;28;20513;-31
2023/06/02 09:50:49;;;;;;;3.05;2.67;;;;;;;18.85;56.71;96555.66;10494159;28;20124;-32
2023/06/02 09:55:50;;;;;;;2.83;2.53;;;;;;;18.84;56.61;96553.97;10490133;28;20052;-32
2023/06/02 10:00:50;;;;;;;2.88;2.58;;;;;;;18.85;56.67;96549.75;10497609;28;20454;-32
2023/06/02 10:06:16;;;;;;;2.80;2.47;;;;;;;18.85;56.65;96549.75;10497013;28;20192;-32
2023/06/02 10:11:34;;;;;;;2.50;2.17;;;;;;;18.86;57.24;96546.34;10497455;28;20033;-33
2023/06/02 10:16:43;;;;;;;2.20;2.00;;;;;;;19.06;57.64;96539.47;10496191;28;20072;-33
2023/06/02 10:22:06;;;;;;;3.80;2.88;;;;;;;19.18;56.43;96550.41;10503891;28;20028;-32
2023/06/02 10:27:21;;;;;;;2.97;2.67;;;;;;;19.04;57.60;96546.25;10496818;28;20073;-33
2023/06/02 10:32:42;;;;;;;2.50;2.30;;;;;;;18.95;57.34;96546.31;10484410;28;20036;-32
2023/06/02 10:37:43;;;;;;;3.20;2.63;;;;;;;18.92;57.55;96543.81;10496454;28;20032;-32
2023/06/02 10:43:11;;;;;;;2.00;1.80;;;;;;;18.90;57.47;96541.25;10489606;28;20513;-33
2023/06/02 10:48:29;;;;;;;;;;;;;;;18.90;56.92;96542.94;10498320;28;20033;-33
2023/06/02 10:53:30;;;;;;;2.50;2.30;;;;;;;18.88;57.13;96539.56;10488892;28;19912;-32
2023/06/02 10:58:47;;;;;;;1.85;1.63;;;;;;;18.88;57.11;96537.03;10493243;28;20024;-33
2023/06/02 11:03:47;;;;;;;2.30;2.00;;;;;;;18.88;57.21;96530.28;10509084;28;20115;-32
2023/06/02 11:08:49;;;;;;;2.72;2.20;;;;;;;18.88;57.05;96529.44;10490823;28;20489;-32
2023/06/02 11:13:59;;;;;;;2.40;2.20;;;;;;;19.01;58.05;96521.75;10493045;28;20409;-32
2023/06/02 11:18:59;;;;;;;2.38;2.15;;;;;;;19.17;57.50;96517.44;10499265;28;20398;-33
2023/06/02 11:24:00;;;;;;;2.33;2.10;;;;;;;19.14;57.32;96531.00;10492526;28;20033;-32
2023/06/02 11:29:14;;;;;;;2.03;1.88;;;;;;;19.00;57.72;96517.53;10494342;28;20040;-33
2023/06/02 11:34:16;;;;;;;1.95;1.75;;;;;;;18.93;57.77;96512.50;10491543;28;20032;-32
2023/06/02 11:39:16;;;;;;;2.03;1.83;;;;;;;18.95;57.25;96515.88;10502446;28;20102;-32
2023/06/02 11:44:16;;;;;;;1.90;1.70;;;;;;;18.92;57.49;96505.75;10487979;28;20070;-33
2023/06/02 11:49:17;;;;;;;1.80;1.70;;;;;;;18.91;57.22;96504.91;10492302;28;20035;-32
2023/06/02 11:54:18;;;;;;;1.77;1.48;;;;;;;18.92;57.07;96503.22;10493464;28;20028;-32
2023/06/02 11:59:19;;;;;;;2.03;1.83;;;;;;;18.91;57.25;96499.00;10491813;28;20110;-32
2023/06/02 12:04:19;;;;;;;2.47;2.23;;;;;;;18.91;57.34;96499.00;10502097;28;20082;-35
2023/06/02 12:09:21;;;;;;;1.77;1.43;;;;;;;18.91;57.39;96488.84;10488203;28;20024;-33
2023/06/02 12:14:21;;;;;;;2.25;2.05;;;;;;;19.09;58.46;96492.09;10486791;28;20804;-32
2023/06/02 12:19:22;;;;;;;1.87;1.70;;;;;;;19.21;57.39;96498.84;10492195;28;20035;-32
2023/06/02 12:24:31;;;;;;;2.10;1.90;;;;;;;19.08;57.99;96487.88;10485356;28;20289;-33
2023/06/02 12:29:31;;;;;;;2.00;1.80;;;;;;;19.01;57.98;96481.16;10484181;28;20119;-33
2023/06/02 12:34:32;;;;;;;2.30;2.10;;;;;;;18.98;57.90;96480.31;10490746;28;20111;-32
2023/06/02 12:39:34;;;;;;;2.28;1.92;;;;;;;18.95;57.84;96480.34;10491499;28;20036;-32
2023/06/02 12:44:34;;;;;;;2.10;1.90;;;;;;;18.93;57.85;96472.75;10490640;28;20096;-32
2023/06/02 12:49:37;;;;;;;1.90;1.80;;;;;;;18.95;57.61;96475.28;10484055;28;20053;-32
2023/06/02 12:54:37;;;;;;;1.83;1.70;;;;;;;18.92;57.92;96470.22;10490994;28;20471;-33
2023/06/02 12:59:38;;;;;;;1.70;1.60;;;;;;;18.95;57.66;96467.66;10491700;28;20036;-33
2023/06/02 13:04:38;;;;;;;2.03;1.83;;;;;;;18.94;57.70;96468.53;10491661;28;20040;-32
2023/06/02 13:09:39;;;;;;;1.63;1.53;;;;;;;19.02;59.43;96472.69;10482990;28;20405;-32
2023/06/02 13:14:39;;;;;;;2.20;1.65;;;;;;;19.20;58.53;96461.63;10491009;28;20040;-32
2023/06/02 13:19:41;;;;;;;1.67;1.58;;;;;;;19.23;57.66;96461.59;10485673;28;20044;-33
2023/06/02 13:24:43;;;;;;;1.55;1.45;;;;;;;19.08;58.28;96466.75;10482499;28;20051;-33
2023/06/02 13:29:43;;;;;;;1.73;1.60;;;;;;;19.03;58.32;96471.00;10490771;28;20063;-33
2023/06/02 13:34:55;;;;;;;1.83;1.73;;;;;;;19.01;58.05;96470.19;10485471;28;20459;-33
2023/06/02 13:39:55;;;;;;;2.15;1.60;;;;;;;19.00;58.08;96458.34;10499139;28;20029;-32
2023/06/02 13:44:55;;;;;;;1.50;1.40;;;;;;;18.97;57.98;96456.66;10489638;28;20410;-34
2023/06/02 13:49:56;;;;;;;2.40;2.20;;;;;;;18.97;57.86;96445.66;10482987;28;20372;-33
2023/06/02 13:54:57;;;;;;;1.90;1.70;;;;;;;18.98;58.06;96449.88;10498809;28;20513;-33
2023/06/02 13:59:57;;;;;;;2.00;1.52;;;;;;;18.97;58.07;96441.44;10488569;28;20041;-32
2023/06/02 14:04:57;;;;;;;1.80;1.70;;;;;;;18.98;58.01;96437.19;10489970;28;20093;-32
2023/06/02 14:10:00;;;;;;;1.50;1.40;;;;;;;19.08;58.57;96434.59;10495248;28;20035;-33
2023/06/02 14:15:01;;;;;;;1.30;1.20;;;;;;;19.24;58.27;96427.78;10497250;28;20040;-32
2023/06/02 14:20:02;;;;;;;1.77;1.65;;;;;;;19.21;58.24;96425.22;10495805;28;20041;-33
2023/06/02 14:25:04;;;;;;;1.75;1.65;;;;;;;19.07;58.41;96420.22;10492611;28;20116;-33
2023/06/02 14:30:05;;;;;;;1.60;1.50;;;;;;;19.04;58.58;96420.25;10493435;28;20302;-33
2023/06/02 14:35:05;;;;;;;1.92;1.60;;;;;;;19.02;58.51;96421.94;10495369;28;20024;-33
2023/06/02 14:40:06;;;;;;;1.50;1.40;;;;;;;19.01;58.46;96419.44;10496281;28;20028;-32
2023/06/02 14:45:07;;;;;;;1.80;1.70;;;;;;;19.00;58.30;96417.75;10491695;28;20091;-32
2023/06/02 14:50:08;;;;;;;2.13;1.92;;;;;;;18.99;58.14;96411.00;10502755;28;20036;-33
2023/06/02 14:55:09;;;;;;;1.85;1.63;;;;;;;18.99;58.15;96406.75;10496290;28;20122;-33
2023/06/02 15:00:09;;;;;;;1.50;1.40;;;;;;;18.94;58.24;96397.50;10501568;28;20040;-33
2023/06/02 15:05:10;;;;;;;1.70;1.60;;;;;;;19.00;58.37;96398.28;10504170;28;20066;-32
2023/06/02 15:10:10;;;;;;;1.48;1.38;;;;;;;19.12;58.96;96389.75;10491664;28;20056;-33
2023/06/02 15:15:10;;;;;;;1.40;1.30;;;;;;;19.29;57.93;96390.47;10495081;28;20409;-32
2023/06/02 15:20:11;;;;;;;1.77;1.60;;;;;;;19.20;58.67;96395.63;10486986;28;20299;-33
2023/06/02 15:25:11;;;;;;;1.45;1.35;;;;;;;19.10;58.55;96384.66;10492893;28;20345;-34
2023/06/02 15:30:12;;;;;;;1.70;1.47;;;;;;;19.06;58.57;96377.09;10492160;28;20033;-33
2023/06/02 15:35:12;;;;;;;1.30;1.20;;;;;;;19.03;58.61;96374.59;10487933;28;20032;-32
2023/06/02 15:40:13;;;;;;;1.38;1.27;;;;;;;19.03;58.52;96369.53;10495532;28;20123;-33
2023/06/02 15:45:13;;;;;;;1.87;1.77;;;;;;;19.02;58.39;96362.75;10494536;28;20691;-32
2023/06/02 15:50:14;;;;;;;2.00;1.80;;;;;;;19.02;58.42;96365.31;10494891;28;20402;-33
2023/06/02 15:55:14;;;;;;;1.85;1.50;;;;;;;19.02;58.21;96362.75;10493730;28;20028;-32
2023/06/02 16:00:15;;;;;;;1.70;1.50;;;;;;;19.00;58.45;96352.63;10502994;28;20519;-32
2023/06/02 16:05:15;;;;;;;2.03;1.83;;;;;;;19.02;59.88;96353.44;10489159;28;20036;-32
2023/06/02 16:10:16;;;;;;;1.27;1.17;;;;;;;19.20;58.45;96345.72;10492988;28;20494;-33
2023/06/02 16:15:16;;;;;;;1.40;1.17;;;;;;;19.30;57.95;96351.56;10493191;28;20040;-32
2023/06/02 16:20:17;;;;;;;1.30;1.20;;;;;;;19.18;58.82;96357.53;10492632;28;20046;-33
2023/06/02 16:25:17;;;;;;;1.40;0.93;;;;;;;19.11;58.68;96350.00;10493591;28;20032;-32
2023/06/02 16:30:18;;;;;;;1.55;1.45;;;;;;;19.06;58.79;96346.66;10490936;28;20032;-32
2023/06/02 16:35:19;;;;;;;1.67;1.53;;;;;;;19.05;58.63;96342.44;10492117;28;20106;-32
2023/06/02 16:40:19;;;;;;;1.63;1.52;;;;;;;19.03;58.60;96346.69;10492529;28;20372;-32
2023/06/02 16:45:19;;;;;;;1.73;1.43;;;;;;;19.00;58.48;96344.19;10494714;28;20479;-32
2023/06/02 16:50:20;;;;;;;1.50;1.40;;;;;;;19.02;58.46;96355.16;10486636;28;20461;-33
2023/06/02 16:55:20;;;;;;;1.70;1.60;;;;;;;19.02;58.28;96350.09;10491454;28;20521;-32
2023/06/02 17:00:21;;;;;;;2.10;1.60;;;;;;;19.01;58.32;96343.31;10489493;28;20059;-33
2023/06/02 17:05:21;;;;;;;1.33;1.20;;;;;;;19.07;60.63;96350.88;10489890;28;20119;-32
2023/06/02 17:10:22;;;;;;;1.40;1.30;;;;;;;19.25;58.86;96345.69;10491006;28;20379;-33
2023/06/02 17:15:22;;;;;;;1.35;1.25;;;;;;;19.29;58.09;96340.56;10493663;28;20044;-32
2023/06/02 17:20:23;;;;;;;1.20;1.10;;;;;;;19.12;58.79;96341.53;10490711;28;20032;-32
2023/06/02 17:25:23;;;;;;;1.30;1.20;;;;;;;19.10;58.71;96348.31;10489035;28;20044;-32
2023/06/02 17:30:24;;;;;;;1.35;1.23;;;;;;;19.07;58.59;96353.41;10490688;28;20482;-33
2023/06/02 17:35:25;;;;;;;1.50;1.40;;;;;;;19.04;58.64;96359.38;10483811;28;20144;-32
2023/06/02 17:40:25;;;;;;;1.60;1.50;;;;;;;19.02;58.53;96363.59;10487014;28;20032;-33
2023/06/02 17:45:26;;;;;;;1.70;1.60;;;;;;;18.99;58.22;96365.34;10506903;28;20095;-33
2023/06/02 17:50:26;;;;;;;1.52;1.40;;;;;;;19.03;58.14;96377.13;10495937;28;20037;-33
2023/06/02 17:55:27;;;;;;;1.40;1.30;;;;;;;19.01;58.08;96383.91;10498635;28;20040;-32
2023/06/02 18:00:27;;;;;;;1.40;1.30;;;;;;;19.01;58.05;96383.91;10496743;28;20082;-33
2023/06/02 18:05:28;;;;;;;1.83;1.73;;;;;;;18.99;60.16;96355.19;10493275;28;20041;-33
2023/06/02 18:10:28;;;;;;;1.25;1.15;;;;;;;19.26;58.38;96382.91;10495439;28;20110;-32
2023/06/02 18:15:29;;;;;;;1.27;1.10;;;;;;;19.22;58.72;96391.38;10493140;28;20037;-32
2023/06/02 18:20:33;;;;;;;1.17;1.07;;;;;;;19.11;58.70;96399.06;10497096;28;20048;-33
2023/06/02 18:25:33;;;;;;;1.38;1.27;;;;;;;19.05;58.56;96399.09;10496542;28;20384;-33
2023/06/02 18:30:33;;;;;;;1.30;1.20;;;;;;;19.02;58.45;96399.09;10496865;28;20033;-33
2023/06/02 18:35:34;;;;;;;1.03;0.93;;;;;;;19.02;58.14;96405.91;10491783;28;20290;-33
2023/06/02 18:40:34;;;;;;;1.17;1.00;;;;;;;19.00;58.00;96405.06;10496596;28;20036;-32
2023/06/02 18:45:34;;;;;;;1.27;1.17;;;;;;;19.00;57.80;96408.44;10489569;28;20037;-32
2023/06/02 18:50:35;;;;;;;1.40;1.30;;;;;;;18.99;57.94;96413.53;10487556;28;20024;-32
2023/06/02 18:55:35;;;;;;;1.52;1.40;;;;;;;18.99;57.73;96428.75;10494677;28;20047;-33
2023/06/02 19:00:36;;;;;;;1.45;1.35;;;;;;;19.01;59.62;96425.34;10494791;28;20028;-33
2023/06/02 19:05:36;;;;;;;1.23;1.13;;;;;;;19.21;59.16;96428.63;10495631;28;20498;-32
2023/06/02 19:10:37;;;;;;;0.97;0.90;;;;;;;19.32;57.97;96436.13;10488858;28;20283;-33
2023/06/02 19:15:37;;;;;;;1.30;1.20;;;;;;;19.17;58.33;96447.22;10495315;28;20115;-33
2023/06/02 19:20:38;;;;;;;1.25;1.15;;;;;;;19.10;58.40;96449.81;10491796;28;20043;-32
2023/06/02 19:25:38;;;;;;;1.50;1.13;;;;;;;19.06;58.27;96458.28;10502597;28;20040;-32
2023/06/02 19:30:39;;;;;;;1.60;1.40;;;;;;;18.98;58.10;96460.88;10502165;28;20039;-32
2023/06/02 19:35:40;;;;;;;1.30;1.13;;;;;;;19.01;57.78;96467.63;10496742;28;20851;-32
2023/06/02 19:40:40;;;;;;;1.30;1.20;;;;;;;19.00;57.81;96473.56;10501338;28;20127;-32
2023/06/02 19:45:40;;;;;;;1.13;1.03;;;;;;;19.00;57.69;96478.66;10500545;28;20032;-33
2023/06/02 19:50:41;;;;;;;1.17;1.07;;;;;;;18.99;57.61;96482.03;10493872;28;20040;-32
2023/06/02 19:55:42;;;;;;;1.42;1.23;;;;;;;18.95;57.77;96480.34;10486793;28;20461;-33
2023/06/02 20:00:42;;;;;;;1.20;1.10;;;;;;;19.06;59.40;96493.81;10493048;28;20081;-33
2023/06/02 20:05:43;;;;;;;1.05;1.00;;;;;;;19.25;58.62;96500.50;10494331;28;20043;-32
2023/06/02 20:10:43;;;;;;;1.30;1.20;;;;;;;19.30;57.68;96508.91;10491739;28;20418;-32
2023/06/02 20:15:44;;;;;;;1.20;1.10;;;;;;;19.16;58.46;96503.91;10491976;28;20044;-32
2023/06/02 20:20:44;;;;;;;1.13;1.03;;;;;;;19.08;58.17;96512.44;10491102;28;20037;-32
2023/06/02 20:25:45;;;;;;;1.70;1.50;;;;;;;19.05;57.76;96522.56;10492157;28;20644;-32
2023/06/02 20:30:45;;;;;;;1.13;1.03;;;;;;;19.04;57.97;96513.28;10487613;28;20474;-32
2023/06/02 20:35:46;;;;;;;2.47;1.27;;;;;;;18.99;57.78;96517.56;10491869;28;20039;-32
2023/06/02 20:40:46;;;;;;;1.10;1.00;;;;;;;19.01;57.85;96531.91;10493531;28;20036;-32
2023/06/02 20:45:46;;;;;;;1.13;1.03;;;;;;;19.00;57.78;96529.38;10491938;28;20075;-33
2023/06/02 20:50:48;;;;;;;1.45;1.35;;;;;;;18.99;57.80;96530.25;10491350;28;20052;-32
2023/06/02 20:55:48;;;;;;;1.50;1.40;;;;;;;18.98;57.72;96526.00;10484842;28;20044;-33
2023/06/02 21:00:49;;;;;;;1.13;1.03;;;;;;;19.10;59.19;96525.94;10499964;28;20558;-33
2023/06/02 21:05:49;;;;;;;1.17;1.08;;;;;;;19.28;58.60;96528.41;10484861;28;20297;-32
2023/06/02 21:10:50;;;;;;;1.27;1.17;;;;;;;19.26;58.09;96522.50;10491650;28;20414;-32
2023/06/02 21:15:50;;;;;;;0.90;0.90;;;;;;;19.12;58.38;96529.31;10483617;28;20449;-32
2023/06/02 21:20:53;;;;;;;1.07;1.00;;;;;;;19.09;58.18;96534.41;10498619;28;20036;-32
2023/06/02 21:25:53;;;;;;;0.95;0.85;;;;;;;19.02;58.17;96522.59;10463972;28;20415;-32
2023/06/02 21:30:54;;;;;;;0.95;0.95;;;;;;;19.03;57.76;96531.91;10482539;28;20031;-32
2023/06/02 21:35:55;;;;;;;1.30;1.20;;;;;;;19.02;57.59;96532.75;10490913;28;20024;-33
2023/06/02 21:40:55;;;;;;;1.20;1.10;;;;;;;19.01;57.70;96526.00;10484059;28;20037;-33
2023/06/02 21:45:56;;;;;;;1.40;1.20;;;;;;;18.99;57.71;96522.63;10490528;28;20048;-33
2023/06/02 21:50:56;;;;;;;1.50;1.40;;;;;;;18.98;57.54;96520.91;10497932;28;20092;-33
2023/06/02 21:55:57;;;;;;;1.27;1.17;;;;;;;18.95;57.58;96520.94;10489689;28;20505;-33
2023/06/02 22:00:57;;;;;;;1.30;1.20;;;;;;;19.17;58.50;96520.00;10482252;28;20036;-33
2023/06/02 22:05:57;;;;;;;1.10;1.00;;;;;;;19.33;58.28;96531.78;10481231;28;20036;-32
2023/06/02 22:10:59;;;;;;;1.30;1.20;;;;;;;19.25;58.07;96530.97;10489627;28;20085;-32
2023/06/02 22:16:00;;;;;;;1.50;1.40;;;;;;;19.13;58.31;96531.00;10483710;28;20044;-33
2023/06/02 22:21:00;;;;;;;1.17;1.07;;;;;;;19.06;58.10;96534.41;10489552;28;20040;-32
2023/06/02 22:26:01;;;;;;;1.33;1.17;;;;;;;19.04;57.81;96531.91;10488449;28;20111;-32
2023/06/02 22:31:01;;;;;;;1.07;0.90;;;;;;;19.02;57.75;96517.53;10497497;28;20028;-33
2023/06/02 22:36:02;;;;;;;1.55;1.40;;;;;;;19.00;57.44;96515.00;10495668;28;20294;-32
2023/06/02 22:41:02;;;;;;;1.15;1.02;;;;;;;19.00;57.53;96519.25;10493931;28;20029;-32
2023/06/02 22:46:03;;;;;;;0.97;0.90;;;;;;;19.00;57.60;96525.13;10504298;28;20449;-33
2023/06/02 22:51:03;;;;;;;1.20;1.10;;;;;;;19.00;57.56;96531.94;10493694;28;20036;-32
2023/06/02 22:56:04;;;;;;;1.00;0.95;;;;;;;19.00;58.20;96524.31;10496155;28;20044;-33
2023/06/02 23:01:05;;;;;;;1.05;0.98;;;;;;;19.21;58.38;96525.06;10491980;28;20033;-33
2023/06/02 23:06:05;;;;;;;1.08;0.98;;;;;;;19.34;57.26;96520.75;10494415;28;20040;-32
2023/06/02 23:11:07;;;;;;;1.10;1.00;;;;;;;19.19;58.12;96525.91;10495325;28;20042;-33
2023/06/02 23:16:07;;;;;;;1.15;0.93;;;;;;;19.10;57.94;96526.78;10496134;28;20654;-32
2023/06/02 23:21:07;;;;;;;1.07;0.97;;;;;;;19.05;57.92;96527.66;10495048;28;20051;-33